Time;durP1;ratioP1;P1;durP2;ratioP2;P2;SDS_P1;SDS_P2;PMS_P1;PMS_P2;Temp;Humidity;BMP_temperature;BMP_pressure;BME280_temperature;BME280_humidity;BME280_pressure;Samples;Min_cycle;Max_cycle;Signal;HPM_P1;HPM_P2
2021/09/22 00:00:38;;;;;;;;;2.50;2.50;;;;;;;;2778790;51;8778;-67
2021/09/22 00:03:04;;;;;;;;;2.00;1.00;;;;;;;;2779218;51;9177;-69
2021/09/22 00:05:29;;;;;;;;;3.00;3.00;;;;;;;;2779365;51;8790;-69
2021/09/22 00:07:55;;;;;;;;;1.33;1.33;;;;;;;;2778742;51;8782;-69
2021/09/22 00:10:21;;;;;;;;;2.00;2.00;;;;;;;;2779046;51;10868;-70
2021/09/22 00:12:49;;;;;;;;;2.75;1.75;;;;;;;;2779400;51;8872;-71
2021/09/22 00:15:16;;;;;;;;;1.60;1.00;;;;;;;;2779210;51;8772;-70
2021/09/22 00:17:42;;;;;;;;;1.80;1.80;;;;;;;;2779014;51;8762;-71
2021/09/22 00:20:09;;;;;;;;;4.00;2.67;;;;;;;;2779067;51;9390;-68
2021/09/22 00:22:34;;;;;;;;;1.50;1.00;;;;;;;;2779232;51;8782;-72
2021/09/22 00:25:00;;;;;;;;;1.00;1.00;;;;;;;;2778426;51;8762;-70
2021/09/22 00:27:25;;;;;;;;;1.25;1.00;;;;;;;;2779122;51;8770;-70
2021/09/22 00:29:51;;;;;;;;;1.00;1.00;;;;;;;;2778953;51;8885;-72
2021/09/22 00:32:17;;;;;;;;;3.67;2.00;;;;;;;;2779112;51;8763;-68
2021/09/22 00:34:42;;;;;;;;;0.67;0.67;;;;;;;;2779198;51;8793;-72
2021/09/22 00:37:08;;;;;;;;;2.00;2.00;;;;;;;;2779115;51;8778;-72
2021/09/22 00:39:37;;;;;;;;;2.00;2.00;;;;;;;;2779311;51;8798;-73
2021/09/22 00:42:04;;;;;;;;;3.80;1.40;;;;;;;;2779218;51;8759;-72
2021/09/22 00:44:29;;;;;;;;;3.25;2.00;;;;;;;;2779065;51;9436;-71
2021/09/22 00:46:55;;;;;;;;;2.50;2.25;;;;;;;;2779135;51;8774;-70
2021/09/22 00:49:21;;;;;;;;;2.67;1.00;;;;;;;;2779110;51;8790;-71
2021/09/22 00:51:46;;;;;;;;;2.00;2.00;;;;;;;;2779183;51;8805;-70
2021/09/22 00:54:13;;;;;;;;;4.00;2.33;;;;;;;;2778370;51;8785;-67
2021/09/22 00:56:38;;;;;;;;;1.25;1.25;;;;;;;;2779214;51;8778;-72
2021/09/22 00:59:04;;;;;;;;;4.33;1.33;;;;;;;;2779971;51;8791;-73
2021/09/22 01:01:30;;;;;;;;;3.00;1.20;;;;;;;;2780147;51;8832;-73
2021/09/22 01:03:56;;;;;;;;;2.33;2.33;;;;;;;;2780048;51;8767;-72
2021/09/22 01:06:25;;;;;;;;;3.75;3.25;;;;;;;;2780107;51;9438;-77
2021/09/22 01:08:52;;;;;;;;;3.00;3.00;;;;;;;;2780067;51;8931;-77
2021/09/22 01:11:19;;;;;;;;;3.25;2.25;;;;;;;;2780256;51;8915;-76
2021/09/22 01:13:44;;;;;;;;;3.00;3.00;;;;;;;;2779959;51;8786;-78
2021/09/22 01:16:10;;;;;;;;;1.33;1.33;;;;;;;;2779300;51;8883;-78
2021/09/22 01:18:35;;;;;;;;;1.67;1.67;;;;;;;;2780122;51;8844;-80
2021/09/22 01:21:01;;;;;;;;;1.33;1.33;;;;;;;;2779384;51;8815;-79
2021/09/22 01:23:27;;;;;;;;;3.33;3.33;;;;;;;;2780222;51;8781;-78
2021/09/22 01:25:53;;;;;;;;;1.50;1.50;;;;;;;;2779974;51;8785;-84
2021/09/22 01:28:21;;;;;;;;;2.50;1.00;;;;;;;;2780079;51;8872;-83
2021/09/22 01:30:47;;;;;;;;;2.50;2.50;;;;;;;;2779911;51;8793;-83
2021/09/22 01:33:13;;;;;;;;;2.50;2.50;;;;;;;;2779966;51;8852;-83
2021/09/22 01:35:40;;;;;;;;;1.75;1.75;;;;;;;;2780402;51;8862;-84
2021/09/22 01:38:08;;;;;;;;;2.50;2.50;;;;;;;;2779110;51;8795;-74
2021/09/22 01:40:34;;;;;;;;;1.75;1.00;;;;;;;;2780340;51;8789;-81
2021/09/22 01:43:00;;;;;;;;;2.33;2.00;;;;;;;;2780633;51;8877;-82
2021/09/22 01:45:25;;;;;;;;;2.00;1.25;;;;;;;;2780289;51;8860;-84
2021/09/22 01:47:51;;;;;;;;;2.67;2.00;;;;;;;;2780027;51;8782;-82
2021/09/22 01:50:19;;;;;;;;;1.33;1.00;;;;;;;;2781140;51;8797;-82
2021/09/22 01:52:45;;;;;;;;;2.00;1.50;;;;;;;;2780809;51;8779;-82
2021/09/22 01:55:12;;;;;;;;;3.25;3.00;;;;;;;;2780979;51;8979;-82
2021/09/22 01:57:37;;;;;;;;;2.75;2.50;;;;;;;;2781165;51;8790;-82
2021/09/22 02:00:06;;;;;;;;;2.67;1.67;;;;;;;;2781350;51;8879;-82
2021/09/22 02:02:32;;;;;;;;;4.00;2.00;;;;;;;;2781873;51;8879;-82
2021/09/22 02:04:58;;;;;;;;;3.00;3.00;;;;;;;;2780738;51;8786;-82
2021/09/22 02:07:24;;;;;;;;;3.50;2.50;;;;;;;;2780595;51;8786;-83
2021/09/22 02:09:50;;;;;;;;;2.25;1.50;;;;;;;;2780343;51;8767;-82
2021/09/22 02:12:15;;;;;;;;;1.00;1.00;;;;;;;;2780138;51;8779;-81
2021/09/22 02:14:41;;;;;;;;;1.67;1.67;;;;;;;;2779955;51;9543;-83
2021/09/22 02:17:06;;;;;;;;;1.75;1.25;;;;;;;;2780044;51;8782;-83
2021/09/22 02:19:32;;;;;;;;;0.67;0.67;;;;;;;;2780011;51;8790;-82
2021/09/22 02:21:58;;;;;;;;;3.00;3.00;;;;;;;;2780439;51;8809;-83
2021/09/22 02:24:23;;;;;;;;;3.67;2.67;;;;;;;;2780778;51;8775;-83
2021/09/22 02:26:51;;;;;;;;;3.67;3.67;;;;;;;;2781021;51;8778;-82
2021/09/22 02:29:18;;;;;;;;;1.75;1.75;;;;;;;;2781500;51;8779;-80
2021/09/22 02:31:44;;;;;;;;;3.25;2.00;;;;;;;;2780389;51;9517;-82
2021/09/22 02:34:10;;;;;;;;;4.00;2.00;;;;;;;;2780019;51;8762;-83
2021/09/22 02:36:36;;;;;;;;;3.00;2.00;;;;;;;;2779873;51;9513;-82
2021/09/22 02:39:01;;;;;;;;;1.33;1.00;;;;;;;;2779866;51;8786;-83
2021/09/22 02:41:27;;;;;;;;;3.00;3.00;;;;;;;;2779828;51;8786;-82
2021/09/22 02:43:53;;;;;;;;;3.00;1.33;;;;;;;;2780547;51;8802;-81
2021/09/22 02:46:18;;;;;;;;;2.00;1.00;;;;;;;;2782456;51;9423;-82
2021/09/22 02:48:44;;;;;;;;;4.00;4.00;;;;;;;;2781962;51;8785;-83
2021/09/22 02:51:09;;;;;;;;;3.00;3.00;;;;;;;;2779972;51;8793;-83
2021/09/22 02:53:35;;;;;;;;;3.00;2.00;;;;;;;;2780003;51;8778;-85
2021/09/22 02:56:00;;;;;;;;;3.33;2.33;;;;;;;;2779582;51;8878;-81
2021/09/22 02:58:26;;;;;;;;;3.33;2.00;;;;;;;;2779891;51;8816;-83
2021/09/22 03:00:52;;;;;;;;;3.00;2.00;;;;;;;;2780205;51;8774;-84
2021/09/22 03:03:17;;;;;;;;;2.00;2.00;;;;;;;;2780565;51;8771;-83
2021/09/22 03:05:43;;;;;;;;;2.67;2.00;;;;;;;;2779689;51;8771;-85
2021/09/22 03:08:09;;;;;;;;;1.00;1.00;;;;;;;;2779538;51;8940;-83
2021/09/22 03:10:34;;;;;;;;;2.67;2.00;;;;;;;;2779847;51;11380;-84
2021/09/22 03:13:00;;;;;;;;;4.00;2.00;;;;;;;;2779545;51;8775;-83
2021/09/22 03:15:26;;;;;;;;;1.67;1.67;;;;;;;;2779751;51;8775;-83
2021/09/22 03:17:51;;;;;;;;;1.00;1.00;;;;;;;;2779522;51;8795;-83
2021/09/22 03:20:17;;;;;;;;;1.00;1.00;;;;;;;;2779440;51;8770;-85
2021/09/22 03:22:43;;;;;;;;;3.00;2.33;;;;;;;;2779210;51;8777;-82
2021/09/22 03:25:09;;;;;;;;;1.00;1.00;;;;;;;;2780996;51;8775;-81
2021/09/22 03:27:35;;;;;;;;;3.25;2.00;;;;;;;;2781669;51;11415;-82
2021/09/22 03:30:01;;;;;;;;;4.00;3.50;;;;;;;;2779742;51;8747;-82
2021/09/22 03:32:26;;;;;;;;;3.67;2.00;;;;;;;;2779528;51;8762;-82
2021/09/22 03:34:52;;;;;;;;;1.67;1.33;;;;;;;;2779910;51;8785;-83
2021/09/22 03:37:17;;;;;;;;;1.67;1.67;;;;;;;;2780663;51;8769;-83
2021/09/22 03:39:43;;;;;;;;;3.00;3.00;;;;;;;;2779842;51;9558;-82
2021/09/22 03:42:09;;;;;;;;;2.67;2.67;;;;;;;;2779420;51;8778;-82
2021/09/22 03:44:34;;;;;;;;;3.00;3.00;;;;;;;;2780542;51;9516;-82
2021/09/22 03:47:01;;;;;;;;;2.00;2.00;;;;;;;;2779501;51;8787;-82
2021/09/22 03:49:27;;;;;;;;;1.00;1.00;;;;;;;;2779722;51;8791;-82
2021/09/22 03:51:52;;;;;;;;;4.33;2.00;;;;;;;;2779477;51;8763;-82
2021/09/22 03:54:18;;;;;;;;;1.00;1.00;;;;;;;;2779548;51;8774;-83
2021/09/22 03:56:44;;;;;;;;;4.00;2.33;;;;;;;;2779321;51;8805;-83
2021/09/22 03:59:09;;;;;;;;;1.00;1.00;;;;;;;;2780092;51;8908;-83
2021/09/22 04:01:35;;;;;;;;;2.00;2.00;;;;;;;;2779599;51;8774;-83
2021/09/22 04:04:00;;;;;;;;;1.00;1.00;;;;;;;;2779269;51;8786;-84
2021/09/22 04:06:26;;;;;;;;;3.00;2.00;;;;;;;;2779230;51;8819;-83
2021/09/22 04:08:52;;;;;;;;;5.00;2.33;;;;;;;;2779466;51;8782;-84
2021/09/22 04:11:17;;;;;;;;;3.67;2.00;;;;;;;;2779946;51;8766;-85
2021/09/22 04:13:43;;;;;;;;;4.00;3.00;;;;;;;;2780302;51;8896;-84
2021/09/22 04:16:09;;;;;;;;;2.67;2.67;;;;;;;;2780141;51;9478;-83
2021/09/22 04:18:35;;;;;;;;;0.00;0.00;;;;;;;;2780603;51;8790;-84
2021/09/22 04:21:01;;;;;;;;;2.50;2.50;;;;;;;;2781434;51;8786;-84
2021/09/22 04:23:27;;;;;;;;;3.00;1.00;;;;;;;;2780509;51;8794;-83
2021/09/22 04:25:52;;;;;;;;;1.25;1.25;;;;;;;;2780320;51;8778;-83
2021/09/22 04:28:18;;;;;;;;;1.33;1.33;;;;;;;;2780207;51;8782;-81
2021/09/22 04:30:44;;;;;;;;;1.00;1.00;;;;;;;;2780494;51;8781;-82
2021/09/22 04:33:09;;;;;;;;;1.67;1.67;;;;;;;;2782020;51;8900;-83
2021/09/22 04:35:35;;;;;;;;;2.67;2.00;;;;;;;;2780275;51;8867;-83
2021/09/22 04:38:01;;;;;;;;;4.00;1.00;;;;;;;;2783435;51;8826;-82
2021/09/22 04:40:30;;;;;;;;;1.00;1.00;;;;;;;;2781158;51;8778;-82
2021/09/22 04:42:56;;;;;;;;;4.75;0.00;;;;;;;;2780342;51;8770;-83
2021/09/22 04:45:22;;;;;;;;;2.00;1.50;;;;;;;;2781103;51;8912;-84
2021/09/22 04:47:48;;;;;;;;;3.00;2.50;;;;;;;;2780029;51;8766;-82
2021/09/22 04:50:14;;;;;;;;;1.00;1.00;;;;;;;;2780062;51;8777;-83
2021/09/22 04:52:40;;;;;;;;;2.00;2.00;;;;;;;;2780586;51;8814;-86
2021/09/22 04:55:06;;;;;;;;;2.00;2.00;;;;;;;;2780769;51;8787;-83
2021/09/22 04:57:32;;;;;;;;;5.25;3.25;;;;;;;;2780514;51;8790;-83
2021/09/22 04:59:57;;;;;;;;;2.00;1.50;;;;;;;;2781429;51;8805;-82
2021/09/22 05:02:23;;;;;;;;;2.00;2.00;;;;;;;;2780237;51;10166;-83
2021/09/22 05:04:49;;;;;;;;;3.67;2.33;;;;;;;;2781409;51;8782;-85
2021/09/22 05:07:14;;;;;;;;;2.50;2.50;;;;;;;;2780778;51;8774;-84
2021/09/22 05:09:40;;;;;;;;;1.75;1.75;;;;;;;;2780861;51;9855;-84
2021/09/22 05:12:06;;;;;;;;;2.75;2.75;;;;;;;;2780805;51;8802;-84
2021/09/22 05:14:31;;;;;;;;;3.00;2.00;;;;;;;;2781851;51;8897;-84
2021/09/22 05:16:57;;;;;;;;;2.00;2.00;;;;;;;;2780415;51;8895;-83
2021/09/22 05:19:23;;;;;;;;;2.00;2.00;;;;;;;;2780170;51;8791;-82
2021/09/22 05:21:48;;;;;;;;;3.50;2.00;;;;;;;;2780406;51;8782;-83
2021/09/22 05:24:14;;;;;;;;;1.00;1.00;;;;;;;;2784129;51;8779;-84
2021/09/22 05:26:40;;;;;;;;;3.50;3.00;;;;;;;;2784300;51;8774;-85
2021/09/22 05:29:05;;;;;;;;;2.00;1.00;;;;;;;;2782165;51;8802;-84
2021/09/22 05:31:31;;;;;;;;;2.25;2.25;;;;;;;;2780169;51;8779;-84
2021/09/22 05:33:57;;;;;;;;;0.00;0.00;;;;;;;;2780212;51;8787;-85
2021/09/22 05:36:22;;;;;;;;;2.00;2.00;;;;;;;;2779900;51;8867;-84
2021/09/22 05:38:48;;;;;;;;;1.25;0.75;;;;;;;;2780012;51;8798;-82
2021/09/22 05:41:14;;;;;;;;;1.00;1.00;;;;;;;;2779906;51;8775;-83
2021/09/22 05:43:39;;;;;;;;;3.50;2.50;;;;;;;;2779759;51;8885;-85
2021/09/22 05:46:05;;;;;;;;;2.75;2.75;;;;;;;;2779812;51;8766;-84
2021/09/22 05:48:31;;;;;;;;;2.00;2.00;;;;;;;;2780480;51;8774;-82
2021/09/22 05:50:57;;;;;;;;;0.00;0.00;;;;;;;;2780638;51;10247;-83
2021/09/22 05:53:23;;;;;;;;;1.40;1.40;;;;;;;;2780116;51;8774;-84
2021/09/22 05:55:49;;;;;;;;;2.00;2.00;;;;;;;;2780101;51;8770;-85
2021/09/22 05:58:16;;;;;;;;;3.75;2.00;;;;;;;;2780304;51;8794;-83
2021/09/22 06:00:42;;;;;;;;;1.00;1.00;;;;;;;;2779785;51;8779;-85
2021/09/22 06:03:08;;;;;;;;;3.00;2.80;;;;;;;;2779273;51;8823;-84
2021/09/22 06:05:34;;;;;;;;;3.20;3.20;;;;;;;;2779971;51;8758;-86
2021/09/22 06:07:59;;;;;;;;;3.25;2.75;;;;;;;;2779829;51;8789;-85
2021/09/22 06:10:25;;;;;;;;;4.00;3.00;;;;;;;;2779843;51;8763;-84
2021/09/22 06:12:51;;;;;;;;;2.25;1.00;;;;;;;;2780015;51;8779;-84
2021/09/22 06:15:16;;;;;;;;;1.00;1.00;;;;;;;;2779873;51;8759;-83
2021/09/22 06:17:42;;;;;;;;;2.50;2.00;;;;;;;;2780450;51;8859;-84
2021/09/22 06:20:08;;;;;;;;;3.50;3.50;;;;;;;;2779951;51;9450;-85
2021/09/22 06:22:34;;;;;;;;;2.40;2.40;;;;;;;;2780055;51;8778;-85
2021/09/22 06:24:59;;;;;;;;;4.25;3.00;;;;;;;;2780155;51;8797;-83
2021/09/22 06:27:25;;;;;;;;;3.50;2.25;;;;;;;;2779717;51;8886;-83
2021/09/22 06:29:51;;;;;;;;;2.00;2.00;;;;;;;;2779620;51;8798;-85
2021/09/22 06:32:16;;;;;;;;;3.00;3.00;;;;;;;;2779952;51;8782;-84
2021/09/22 06:34:42;;;;;;;;;3.50;0.50;;;;;;;;2780854;51;9502;-85
2021/09/22 06:37:09;;;;;;;;;2.00;2.00;;;;;;;;2780532;51;9423;-83
2021/09/22 06:39:35;;;;;;;;;2.00;2.00;;;;;;;;2780314;51;8893;-83
2021/09/22 06:42:00;;;;;;;;;1.75;1.75;;;;;;;;2780287;51;8892;-84
2021/09/22 06:44:26;;;;;;;;;2.00;2.00;;;;;;;;2780751;51;8783;-83
2021/09/22 06:46:52;;;;;;;;;3.00;2.00;;;;;;;;2781104;51;8809;-84
2021/09/22 06:49:17;;;;;;;;;2.50;2.50;;;;;;;;2780204;51;8782;-82
2021/09/22 06:51:43;;;;;;;;;4.00;2.75;;;;;;;;2780482;51;8774;-84
2021/09/22 06:54:08;;;;;;;;;3.50;2.50;;;;;;;;2779519;51;8879;-84
2021/09/22 06:56:34;;;;;;;;;3.00;1.75;;;;;;;;2780226;51;8779;-85
2021/09/22 06:59:00;;;;;;;;;2.50;2.50;;;;;;;;2784179;51;8778;-82
2021/09/22 07:01:25;;;;;;;;;5.00;3.00;;;;;;;;2782665;51;8794;-83
2021/09/22 07:03:51;;;;;;;;;2.50;2.00;;;;;;;;2780356;51;8774;-84
2021/09/22 07:06:16;;;;;;;;;3.00;2.00;;;;;;;;2779767;51;8851;-83
2021/09/22 07:08:42;;;;;;;;;2.75;1.00;;;;;;;;2779712;51;8763;-83
2021/09/22 07:11:08;;;;;;;;;2.75;2.75;;;;;;;;2780022;51;8771;-83
2021/09/22 07:13:37;;;;;;;;;1.50;1.50;;;;;;;;2779240;51;8758;-82
2021/09/22 07:16:03;;;;;;;;;3.60;1.60;;;;;;;;2779875;51;8786;-83
2021/09/22 07:18:29;;;;;;;;;2.60;1.40;;;;;;;;2780371;51;8794;-84
2021/09/22 07:20:55;;;;;;;;;2.00;2.00;;;;;;;;2780560;51;8774;-83
2021/09/22 07:23:20;;;;;;;;;1.75;1.75;;;;;;;;2784053;51;8774;-85
2021/09/22 07:25:46;;;;;;;;;2.25;1.00;;;;;;;;2784868;51;8774;-82
2021/09/22 07:28:11;;;;;;;;;2.00;2.00;;;;;;;;2780684;51;8782;-84
2021/09/22 07:30:37;;;;;;;;;2.50;2.00;;;;;;;;2779569;51;8893;-84
2021/09/22 07:33:04;;;;;;;;;3.00;3.00;;;;;;;;2779897;51;8778;-85
2021/09/22 07:35:30;;;;;;;;;2.80;2.80;;;;;;;;2779591;51;8777;-84
2021/09/22 07:37:55;;;;;;;;;3.25;2.00;;;;;;;;2779751;51;8872;-87
2021/09/22 07:40:21;;;;;;;;;2.75;2.00;;;;;;;;2779235;51;8859;-84
2021/09/22 07:42:47;;;;;;;;;1.75;1.75;;;;;;;;2779185;51;8863;-85
2021/09/22 07:45:13;;;;;;;;;4.50;2.00;;;;;;;;2779517;51;8770;-84
2021/09/22 07:47:39;;;;;;;;;1.20;1.20;;;;;;;;2779921;51;8774;-84
2021/09/22 07:50:08;;;;;;;;;2.60;2.00;;;;;;;;2779617;51;8774;-85
2021/09/22 07:52:36;;;;;;;;;1.00;1.00;;;;;;;;2779652;51;8910;-85
2021/09/22 07:55:04;;;;;;;;;1.80;1.80;;;;;;;;2780452;51;8770;-85
2021/09/22 07:57:29;;;;;;;;;2.00;2.00;;;;;;;;2781286;51;8822;-84
2021/09/22 07:59:55;;;;;;;;;2.00;1.50;;;;;;;;2780514;51;8778;-84
2021/09/22 08:02:21;;;;;;;;;2.00;2.00;;;;;;;;2783924;51;8778;-83
2021/09/22 08:04:47;;;;;;;;;1.00;1.00;;;;;;;;2785644;51;8773;-82
2021/09/22 08:07:13;;;;;;;;;2.50;1.50;;;;;;;;2785665;51;8770;-83
2021/09/22 08:09:38;;;;;;;;;1.00;1.00;;;;;;;;2780163;51;8798;-83
2021/09/22 08:12:04;;;;;;;;;1.25;1.25;;;;;;;;2779988;51;9482;-84
2021/09/22 08:14:31;;;;;;;;;1.60;1.60;;;;;;;;2779324;51;8790;-82
2021/09/22 08:16:57;;;;;;;;;2.20;1.00;;;;;;;;2779237;51;8882;-83
2021/09/22 08:19:23;;;;;;;;;0.60;0.60;;;;;;;;2779976;51;8794;-86
2021/09/22 08:21:49;;;;;;;;;0.75;0.75;;;;;;;;2779961;51;9422;-83
2021/09/22 08:24:14;;;;;;;;;1.25;1.25;;;;;;;;2779335;51;11488;-82
2021/09/22 08:26:40;;;;;;;;;0.25;0.25;;;;;;;;2779806;51;8786;-83
2021/09/22 08:29:06;;;;;;;;;1.00;1.00;;;;;;;;2780211;51;8888;-81
2021/09/22 08:31:31;;;;;;;;;1.00;1.00;;;;;;;;2781178;51;8771;-84
2021/09/22 08:33:57;;;;;;;;;1.25;0.50;;;;;;;;2779437;51;8908;-84
2021/09/22 08:36:22;;;;;;;;;1.00;1.00;;;;;;;;2779409;51;8783;-82
2021/09/22 08:38:50;;;;;;;;;1.25;1.25;;;;;;;;2779574;51;8787;-83
2021/09/22 08:41:16;;;;;;;;;1.00;1.00;;;;;;;;2779301;51;8774;-84
2021/09/22 08:43:42;;;;;;;;;0.75;0.75;;;;;;;;2779634;51;8789;-83
2021/09/22 08:46:08;;;;;;;;;1.20;1.20;;;;;;;;2779717;51;8787;-84
2021/09/22 08:48:34;;;;;;;;;3.00;2.75;;;;;;;;2779891;51;8790;-81
2021/09/22 08:51:00;;;;;;;;;1.40;1.00;;;;;;;;2779832;51;8770;-84
2021/09/22 08:53:26;;;;;;;;;3.00;0.75;;;;;;;;2779281;51;8778;-82
2021/09/22 08:55:51;;;;;;;;;2.50;2.50;;;;;;;;2780866;51;8872;-83
2021/09/22 08:58:17;;;;;;;;;1.00;1.00;;;;;;;;2780389;51;8802;-83
2021/09/22 09:00:44;;;;;;;;;1.25;1.25;;;;;;;;2777898;51;8770;-73
2021/09/22 09:03:28;;;;;;;;;1.20;1.20;;;;;;;;2778809;51;8759;-75
2021/09/22 09:06:13;;;;;;;;;1.00;0.20;;;;;;;;2773099;51;8781;-74
2021/09/22 09:08:39;;;;;;;;;1.00;1.00;;;;;;;;2775370;51;8881;-77
2021/09/22 09:11:05;;;;;;;;;3.00;2.00;;;;;;;;2778702;51;9434;-75
2021/09/22 09:13:43;;;;;;;;;1.50;1.50;;;;;;;;2778541;51;8783;-76
2021/09/22 09:16:14;;;;;;;;;2.00;1.20;;;;;;;;2778981;51;8767;-75
2021/09/22 09:18:43;;;;;;;;;1.80;1.00;;;;;;;;2779361;51;8809;-78
2021/09/22 09:21:09;;;;;;;;;1.00;1.00;;;;;;;;2779989;51;8763;-76
2021/09/22 09:23:35;;;;;;;;;3.00;2.00;;;;;;;;2779601;51;8767;-77
2021/09/22 09:26:03;;;;;;;;;2.00;2.00;;;;;;;;2779530;51;8767;-75
2021/09/22 09:28:31;;;;;;;;;0.00;0.00;;;;;;;;2779768;51;8786;-75
2021/09/22 09:31:10;;;;;;;;;2.00;2.00;;;;;;;;2779719;51;9416;-76
2021/09/22 09:33:46;;;;;;;;;1.00;1.00;;;;;;;;2779778;51;9387;-75
2021/09/22 09:36:12;;;;;;;;;0.60;0.60;;;;;;;;2779924;51;8865;-74
2021/09/22 09:38:38;;;;;;;;;2.60;1.60;;;;;;;;2779768;51;9538;-75
2021/09/22 09:41:04;;;;;;;;;3.75;3.00;;;;;;;;2779168;51;8766;-73
2021/09/22 09:43:29;;;;;;;;;1.00;1.00;;;;;;;;2778908;51;9463;-71
2021/09/22 09:45:55;;;;;;;;;0.50;0.50;;;;;;;;2778826;51;9488;-72
2021/09/22 09:48:22;;;;;;;;;3.00;1.00;;;;;;;;2778673;51;8909;-73
2021/09/22 09:50:57;;;;;;;;;1.60;1.60;;;;;;;;2779032;51;8863;-73
2021/09/22 09:53:41;;;;;;;;;1.20;1.20;;;;;;;;2778443;51;8771;-76
2021/09/22 09:56:17;;;;;;;;;1.00;1.00;;;;;;;;2778662;51;8774;-73
2021/09/22 09:58:44;;;;;;;;;3.40;2.00;;;;;;;;2778356;51;8884;-74
2021/09/22 10:01:10;;;;;;;;;0.00;0.00;;;;;;;;2779086;51;8998;-72
2021/09/22 10:03:35;;;;;;;;;1.25;1.25;;;;;;;;2778808;51;8782;-73
2021/09/22 10:06:01;;;;;;;;;2.00;2.00;;;;;;;;2778564;51;8817;-75
2021/09/22 10:08:28;;;;;;;;;2.75;2.00;;;;;;;;2778683;51;9871;-74
2021/09/22 10:10:55;;;;;;;;;2.00;1.60;;;;;;;;2778676;51;8930;-72
2021/09/22 10:13:22;;;;;;;;;1.80;1.60;;;;;;;;2778835;51;8894;-74
2021/09/22 10:15:48;;;;;;;;;2.20;1.00;;;;;;;;2778518;51;8794;-77
2021/09/22 10:18:15;;;;;;;;;1.20;1.00;;;;;;;;2778784;51;9577;-75
2021/09/22 10:20:42;;;;;;;;;1.40;1.40;;;;;;;;2779185;51;8771;-75
2021/09/22 10:23:09;;;;;;;;;1.00;1.00;;;;;;;;2778696;51;8906;-74
2021/09/22 10:25:35;;;;;;;;;2.00;2.00;;;;;;;;2779171;51;8770;-75
2021/09/22 10:28:01;;;;;;;;;2.80;2.80;;;;;;;;2779012;51;8787;-75
2021/09/22 10:30:32;;;;;;;;;0.75;0.75;;;;;;;;2779419;51;8785;-77
2021/09/22 10:32:58;;;;;;;;;5.00;2.80;;;;;;;;2784105;51;11522;-75
2021/09/22 10:35:26;;;;;;;;;1.75;1.00;;;;;;;;2784590;51;8866;-78
2021/09/22 10:37:57;;;;;;;;;4.60;2.60;;;;;;;;2784310;51;8801;-80
2021/09/22 10:40:35;;;;;;;;;2.80;1.00;;;;;;;;2787819;51;8782;-82
2021/09/22 10:43:15;;;;;;;;;2.00;2.00;;;;;;;;2786725;51;8789;-80
2021/09/22 10:45:45;;;;;;;;;1.40;1.40;;;;;;;;2785476;51;8778;-74
2021/09/22 10:48:17;;;;;;;;;1.00;1.00;;;;;;;;2785897;51;8782;-71
2021/09/22 10:50:42;;;;;;;;;1.40;1.40;;;;;;;;2785935;51;8790;-75
2021/09/22 10:53:27;;;;;;;;;0.50;0.50;;;;;;;;2786608;51;8908;-73
2021/09/22 10:56:04;;;;;;;;;1.60;1.60;;;;;;;;2787479;51;8775;-76
2021/09/22 10:58:38;;;;;;;;;1.00;1.00;;;;;;;;2787757;51;8810;-73
2021/09/22 11:01:04;;;;;;;;;1.20;1.20;;;;;;;;2782058;51;8813;-74
2021/09/22 11:03:53;;;;;;;;;1.75;1.25;;;;;;;;2783561;51;8794;-77
2021/09/22 11:06:37;;;;;;;;;0.60;0.60;;;;;;;;2778822;51;8798;-76
2021/09/22 11:09:09;;;;;;;;;0.20;0.20;;;;;;;;2781324;51;8890;-76
2021/09/22 11:11:52;;;;;;;;;1.40;1.40;;;;;;;;2780351;51;8814;-76
2021/09/22 11:14:30;;;;;;;;;1.20;1.20;;;;;;;;2780895;51;8912;-74
2021/09/22 11:17:00;;;;;;;;;2.20;1.00;;;;;;;;2778041;51;9731;-74
2021/09/22 11:19:27;;;;;;;;;1.40;1.40;;;;;;;;2779510;51;8774;-78
2021/09/22 11:21:52;;;;;;;;;1.60;1.60;;;;;;;;2779802;51;8806;-71
2021/09/22 11:24:21;;;;;;;;;2.00;2.00;;;;;;;;2780099;51;9450;-71
2021/09/22 11:26:47;;;;;;;;;1.60;1.00;;;;;;;;2779756;51;8859;-72
2021/09/22 11:29:26;;;;;;;;;1.80;1.00;;;;;;;;2779525;51;8766;-72
2021/09/22 11:31:52;;;;;;;;;1.00;1.00;;;;;;;;2779627;51;8803;-72
2021/09/22 11:34:27;;;;;;;;;0.00;0.00;;;;;;;;2779531;51;8790;-74
2021/09/22 11:37:03;;;;;;;;;2.00;1.00;;;;;;;;2779521;51;8811;-76
2021/09/22 11:39:29;;;;;;;;;0.20;0.20;;;;;;;;2779299;51;8795;-77
2021/09/22 11:41:55;;;;;;;;;2.20;2.20;;;;;;;;2779001;51;8767;-72
2021/09/22 11:44:24;;;;;;;;;2.00;1.60;;;;;;;;2778874;51;8771;-73
2021/09/22 11:46:53;;;;;;;;;1.60;1.20;;;;;;;;2780132;51;8774;-72
2021/09/22 11:49:19;;;;;;;;;2.00;2.00;;;;;;;;2780036;51;9419;-76
2021/09/22 11:51:45;;;;;;;;;1.00;1.00;;;;;;;;2779525;51;8871;-75
2021/09/22 11:54:18;;;;;;;;;2.50;2.50;;;;;;;;2779477;51;8793;-72
2021/09/22 11:56:43;;;;;;;;;1.00;1.00;;;;;;;;2779321;51;8806;-72
2021/09/22 11:59:10;;;;;;;;;2.50;1.75;;;;;;;;2779244;51;8806;-72
2021/09/22 12:01:35;;;;;;;;;1.00;1.00;;;;;;;;2779443;51;8774;-73
2021/09/22 12:04:01;;;;;;;;;4.50;2.25;;;;;;;;2779486;51;8774;-74
2021/09/22 12:06:27;;;;;;;;;1.25;1.25;;;;;;;;2778935;51;8856;-71
2021/09/22 12:08:53;;;;;;;;;0.80;0.80;;;;;;;;2779432;51;9593;-71
2021/09/22 12:11:20;;;;;;;;;2.00;2.00;;;;;;;;2779394;51;8783;-74
2021/09/22 12:13:47;;;;;;;;;1.20;1.20;;;;;;;;2779424;51;8778;-70
2021/09/22 12:16:16;;;;;;;;;2.80;1.80;;;;;;;;2779365;51;9397;-74
2021/09/22 12:18:48;;;;;;;;;3.20;2.20;;;;;;;;2778871;51;8889;-75
2021/09/22 12:21:14;;;;;;;;;2.00;1.00;;;;;;;;2780433;51;8773;-76
2021/09/22 12:23:40;;;;;;;;;3.00;2.00;;;;;;;;2779966;51;8770;-72
2021/09/22 12:26:07;;;;;;;;;3.00;1.75;;;;;;;;2779457;51;8767;-75
2021/09/22 12:28:32;;;;;;;;;2.00;2.00;;;;;;;;2779241;51;8898;-72
2021/09/22 12:30:58;;;;;;;;;4.50;4.00;;;;;;;;2780613;51;8805;-82
2021/09/22 12:33:24;;;;;;;;;3.00;2.00;;;;;;;;2780086;51;8763;-74
2021/09/22 12:35:50;;;;;;;;;1.40;1.40;;;;;;;;2779321;51;8793;-75
2021/09/22 12:38:16;;;;;;;;;4.00;2.50;;;;;;;;2779351;51;8762;-73
2021/09/22 12:40:44;;;;;;;;;3.20;3.20;;;;;;;;2779066;51;8774;-71
2021/09/22 12:43:26;;;;;;;;;0.80;0.80;;;;;;;;2779380;51;8782;-74
2021/09/22 12:46:04;;;;;;;;;3.80;3.00;;;;;;;;2779100;51;8814;-74
2021/09/22 12:48:30;;;;;;;;;1.40;1.40;;;;;;;;2779186;51;9517;-74
2021/09/22 12:50:56;;;;;;;;;2.75;1.75;;;;;;;;2779409;51;8774;-75
2021/09/22 12:53:22;;;;;;;;;2.25;1.75;;;;;;;;2780333;51;8844;-75
2021/09/22 12:55:52;;;;;;;;;2.00;2.00;;;;;;;;2780368;51;8767;-70
2021/09/22 12:58:31;;;;;;;;;2.00;1.00;;;;;;;;2779855;51;8798;-72
2021/09/22 13:01:00;;;;;;;;;2.00;2.00;;;;;;;;2780203;51;8762;-72
2021/09/22 13:03:27;;;;;;;;;3.20;2.00;;;;;;;;2779973;51;8758;-76
2021/09/22 13:05:54;;;;;;;;;2.60;1.20;;;;;;;;2779845;51;8885;-72
2021/09/22 13:08:21;;;;;;;;;2.40;2.40;;;;;;;;2779935;51;8766;-74
2021/09/22 13:11:05;;;;;;;;;3.60;3.60;;;;;;;;2779914;51;8758;-75
2021/09/22 13:13:45;;;;;;;;;5.50;3.75;;;;;;;;2779981;51;8762;-72
2021/09/22 13:16:10;;;;;;;;;3.75;2.75;;;;;;;;2780030;51;8781;-73
2021/09/22 13:18:36;;;;;;;;;1.50;1.50;;;;;;;;2780166;51;8810;-71
2021/09/22 13:21:02;;;;;;;;;1.75;1.75;;;;;;;;2779949;51;8786;-72
2021/09/22 13:23:29;;;;;;;;;2.00;2.00;;;;;;;;2780119;51;8786;-74
2021/09/22 13:25:56;;;;;;;;;3.00;3.00;;;;;;;;2779864;51;11409;-73
2021/09/22 13:28:22;;;;;;;;;2.80;2.40;;;;;;;;2779824;51;8786;-74
2021/09/22 13:30:48;;;;;;;;;2.00;2.00;;;;;;;;2780249;51;8766;-75
2021/09/22 13:33:14;;;;;;;;;2.00;2.00;;;;;;;;2779923;51;8774;-75
2021/09/22 13:35:40;;;;;;;;;4.75;3.00;;;;;;;;2779757;51;8782;-73
2021/09/22 13:38:05;;;;;;;;;3.00;2.00;;;;;;;;2779715;51;11427;-75
2021/09/22 13:40:31;;;;;;;;;5.00;2.40;;;;;;;;2779980;51;8806;-75
2021/09/22 13:42:57;;;;;;;;;4.00;4.00;;;;;;;;2779819;51;8763;-75
2021/09/22 13:45:23;;;;;;;;;4.00;3.00;;;;;;;;2779195;51;11436;-71
2021/09/22 13:47:48;;;;;;;;;1.00;1.00;;;;;;;;2779955;51;8790;-69
2021/09/22 13:50:14;;;;;;;;;3.25;2.00;;;;;;;;2780113;51;9517;-65
2021/09/22 13:52:40;;;;;;;;;3.00;2.75;;;;;;;;2779973;51;8754;-69
2021/09/22 13:55:05;;;;;;;;;3.75;3.25;;;;;;;;2780043;51;8872;-66
2021/09/22 13:57:31;;;;;;;;;3.00;2.80;;;;;;;;2779479;51;8787;-69
2021/09/22 13:59:57;;;;;;;;;4.25;3.00;;;;;;;;2779666;51;8787;-65
2021/09/22 14:02:22;;;;;;;;;1.75;1.75;;;;;;;;2779550;51;8783;-63
2021/09/22 14:04:48;;;;;;;;;1.75;1.75;;;;;;;;2779792;51;8817;-66
2021/09/22 14:07:17;;;;;;;;;1.00;1.00;;;;;;;;2779545;51;8782;-66
2021/09/22 14:09:43;;;;;;;;;4.00;2.80;;;;;;;;2779963;51;8807;-68
2021/09/22 14:12:09;;;;;;;;;4.60;3.00;;;;;;;;2779589;51;8774;-69
2021/09/22 14:14:34;;;;;;;;;2.00;2.00;;;;;;;;2779504;51;8778;-69
2021/09/22 14:17:00;;;;;;;;;1.50;1.50;;;;;;;;2779666;51;10030;-69
2021/09/22 14:19:26;;;;;;;;;1.25;1.25;;;;;;;;2779680;51;9487;-70
2021/09/22 14:21:51;;;;;;;;;3.25;1.00;;;;;;;;2784076;51;8770;-71
2021/09/22 14:24:17;;;;;;;;;2.00;1.00;;;;;;;;2783190;51;8778;-74
2021/09/22 14:26:43;;;;;;;;;4.40;3.00;;;;;;;;2780037;51;8767;-70
2021/09/22 14:29:09;;;;;;;;;3.50;2.25;;;;;;;;2780061;51;8782;-68
2021/09/22 14:31:35;;;;;;;;;4.00;1.60;;;;;;;;2779692;51;8802;-70
2021/09/22 14:34:00;;;;;;;;;2.00;2.00;;;;;;;;2779504;51;8759;-69
2021/09/22 14:36:26;;;;;;;;;2.50;2.25;;;;;;;;2779305;51;8793;-67
2021/09/22 14:38:52;;;;;;;;;2.25;2.00;;;;;;;;2779545;51;8813;-70
2021/09/22 14:41:17;;;;;;;;;3.00;3.00;;;;;;;;2779829;51;12127;-71
2021/09/22 14:43:43;;;;;;;;;0.00;0.00;;;;;;;;2779297;51;8901;-72
2021/09/22 14:46:09;;;;;;;;;1.75;1.75;;;;;;;;2779373;51;8790;-72
2021/09/22 14:48:34;;;;;;;;;2.00;2.00;;;;;;;;2779381;51;8855;-72
2021/09/22 14:51:00;;;;;;;;;4.00;1.00;;;;;;;;2779495;51;8782;-68
2021/09/22 14:53:26;;;;;;;;;4.00;2.50;;;;;;;;2779342;51;8762;-71